sensor_id;sensor_type;location;lat;lon;timestamp;temperature;humidity
12049;DHT22;6085;49.452;8.502;2023-12-29T00:00:53;9.20;99.90
12049;DHT22;6085;49.452;8.502;2023-12-29T00:04:55;9.10;99.90
12049;DHT22;6085;49.452;8.502;2023-12-29T00:08:56;8.90;99.90
12049;DHT22;6085;49.452;8.502;2023-12-29T00:13:00;8.80;99.90
12049;DHT22;6085;49.452;8.502;2023-12-29T00:17:04;8.80;99.90
12049;DHT22;6085;49.452;8.502;2023-12-29T00:21:06;9.00;99.90
12049;DHT22;6085;49.452;8.502;2023-12-29T00:25:08;9.10;99.90
12049;DHT22;6085;49.452;8.502;2023-12-29T00:29:10;9.20;99.90
12049;DHT22;6085;49.452;8.502;2023-12-29T00:33:13;9.20;99.90
12049;DHT22;6085;49.452;8.502;2023-12-29T00:37:15;9.30;99.90
12049;DHT22;6085;49.452;8.502;2023-12-29T00:41:17;9.40;99.90
12049;DHT22;6085;49.452;8.502;2023-12-29T00:45:19;9.40;99.90
12049;DHT22;6085;49.452;8.502;2023-12-29T00:49:23;9.50;99.90
12049;DHT22;6085;49.452;8.502;2023-12-29T00:53:25;9.60;99.90
12049;DHT22;6085;49.452;8.502;2023-12-29T00:57:26;9.70;99.90
12049;DHT22;6085;49.452;8.502;2023-12-29T01:01:32;9.70;99.90
12049;DHT22;6085;49.452;8.502;2023-12-29T01:05:36;9.50;99.90
12049;DHT22;6085;49.452;8.502;2023-12-29T01:09:38;9.40;99.90
12049;DHT22;6085;49.452;8.502;2023-12-29T01:13:40;9.40;99.90
12049;DHT22;6085;49.452;8.502;2023-12-29T01:17:42;9.50;99.90
12049;DHT22;6085;49.452;8.502;2023-12-29T01:21:45;9.50;99.90
12049;DHT22;6085;49.452;8.502;2023-12-29T01:25:47;9.40;99.90
12049;DHT22;6085;49.452;8.502;2023-12-29T01:29:49;9.20;99.90
12049;DHT22;6085;49.452;8.502;2023-12-29T01:33:51;9.10;99.90
12049;DHT22;6085;49.452;8.502;2023-12-29T01:37:54;9.00;99.90
12049;DHT22;6085;49.452;8.502;2023-12-29T01:41:57;8.90;99.90
12049;DHT22;6085;49.452;8.502;2023-12-29T01:45:58;8.90;99.90
12049;DHT22;6085;49.452;8.502;2023-12-29T01:50:00;8.80;99.90
12049;DHT22;6085;49.452;8.502;2023-12-29T01:54:04;8.80;99.90
12049;DHT22;6085;49.452;8.502;2023-12-29T01:58:06;8.60;99.90
12049;DHT22;6085;49.452;8.502;2023-12-29T02:02:08;8.60;99.90
12049;DHT22;6085;49.452;8.502;2023-12-29T02:06:10;8.60;99.90
12049;DHT22;6085;49.452;8.502;2023-12-29T02:10:13;8.60;99.90
12049;DHT22;6085;49.452;8.502;2023-12-29T02:14:17;8.70;99.90
12049;DHT22;6085;49.452;8.502;2023-12-29T02:18:20;8.70;99.90
12049;DHT22;6085;49.452;8.502;2023-12-29T02:22:23;8.80;99.90
12049;DHT22;6085;49.452;8.502;2023-12-29T02:26:29;8.80;99.90
12049;DHT22;6085;49.452;8.502;2023-12-29T02:30:38;8.70;99.90
12049;DHT22;6085;49.452;8.502;2023-12-29T02:34:41;8.80;99.90
12049;DHT22;6085;49.452;8.502;2023-12-29T02:38:44;8.80;99.90
12049;DHT22;6085;49.452;8.502;2023-12-29T02:42:47;8.90;99.90
12049;DHT22;6085;49.452;8.502;2023-12-29T02:46:49;9.00;99.90
12049;DHT22;6085;49.452;8.502;2023-12-29T02:50:51;9.10;99.90
12049;DHT22;6085;49.452;8.502;2023-12-29T02:54:53;9.10;99.90
12049;DHT22;6085;49.452;8.502;2023-12-29T02:58:56;9.10;99.90
12049;DHT22;6085;49.452;8.502;2023-12-29T03:02:58;9.00;99.90
12049;DHT22;6085;49.452;8.502;2023-12-29T03:07:00;9.00;99.90
12049;DHT22;6085;49.452;8.502;2023-12-29T03:11:02;9.00;99.90
12049;DHT22;6085;49.452;8.502;2023-12-29T03:15:06;8.90;99.90
12049;DHT22;6085;49.452;8.502;2023-12-29T03:19:08;8.90;99.90
12049;DHT22;6085;49.452;8.502;2023-12-29T03:23:09;8.90;99.90
12049;DHT22;6085;49.452;8.502;2023-12-29T03:27:11;9.00;99.90
12049;DHT22;6085;49.452;8.502;2023-12-29T03:31:14;9.00;99.90
12049;DHT22;6085;49.452;8.502;2023-12-29T03:35:16;9.00;99.90
12049;DHT22;6085;49.452;8.502;2023-12-29T03:39:18;8.90;99.90
12049;DHT22;6085;49.452;8.502;2023-12-29T03:43:20;8.90;99.90
12049;DHT22;6085;49.452;8.502;2023-12-29T03:47:23;8.80;99.90
12049;DHT22;6085;49.452;8.502;2023-12-29T03:51:25;8.80;99.90
12049;DHT22;6085;49.452;8.502;2023-12-29T03:55:26;8.90;99.90
12049;DHT22;6085;49.452;8.502;2023-12-29T03:59:28;8.90;99.90
12049;DHT22;6085;49.452;8.502;2023-12-29T04:03:31;9.00;99.90
12049;DHT22;6085;49.452;8.502;2023-12-29T04:07:33;9.10;99.90
12049;DHT22;6085;49.452;8.502;2023-12-29T04:11:35;9.20;99.90
12049;DHT22;6085;49.452;8.502;2023-12-29T04:15:37;9.20;99.90
12049;DHT22;6085;49.452;8.502;2023-12-29T04:19:40;9.30;99.90
12049;DHT22;6085;49.452;8.502;2023-12-29T04:23:42;9.30;99.90
12049;DHT22;6085;49.452;8.502;2023-12-29T04:27:44;9.10;99.90
12049;DHT22;6085;49.452;8.502;2023-12-29T04:31:46;8.90;99.90
12049;DHT22;6085;49.452;8.502;2023-12-29T04:35:49;8.70;99.90
12049;DHT22;6085;49.452;8.502;2023-12-29T04:39:51;8.60;99.90
12049;DHT22;6085;49.452;8.502;2023-12-29T04:43:53;8.40;99.90
12049;DHT22;6085;49.452;8.502;2023-12-29T04:47:55;8.30;99.90
12049;DHT22;6085;49.452;8.502;2023-12-29T04:51:58;8.20;99.90
12049;DHT22;6085;49.452;8.502;2023-12-29T04:56:00;8.20;99.90
12049;DHT22;6085;49.452;8.502;2023-12-29T05:00:03;8.10;99.90
12049;DHT22;6085;49.452;8.502;2023-12-29T05:04:05;8.10;99.90
12049;DHT22;6085;49.452;8.502;2023-12-29T05:08:08;8.20;99.90
12049;DHT22;6085;49.452;8.502;2023-12-29T05:12:10;8.10;99.90
12049;DHT22;6085;49.452;8.502;2023-12-29T05:16:12;8.10;99.90
12049;DHT22;6085;49.452;8.502;2023-12-29T05:20:15;8.00;99.90
12049;DHT22;6085;49.452;8.502;2023-12-29T05:24:18;7.90;99.90
12049;DHT22;6085;49.452;8.502;2023-12-29T05:28:20;7.80;99.90
12049;DHT22;6085;49.452;8.502;2023-12-29T05:32:22;7.70;99.90
12049;DHT22;6085;49.452;8.502;2023-12-29T05:36:23;7.50;99.90
12049;DHT22;6085;49.452;8.502;2023-12-29T05:40:27;7.30;99.90
12049;DHT22;6085;49.452;8.502;2023-12-29T05:44:29;7.20;99.90
12049;DHT22;6085;49.452;8.502;2023-12-29T05:48:31;7.10;99.90
12049;DHT22;6085;49.452;8.502;2023-12-29T05:52:32;7.20;99.90
12049;DHT22;6085;49.452;8.502;2023-12-29T05:56:36;7.20;99.90
12049;DHT22;6085;49.452;8.502;2023-12-29T06:00:38;7.40;99.90
12049;DHT22;6085;49.452;8.502;2023-12-29T06:04:40;7.60;99.90
12049;DHT22;6085;49.452;8.502;2023-12-29T06:08:42;7.70;99.90
12049;DHT22;6085;49.452;8.502;2023-12-29T06:12:45;7.90;99.90
12049;DHT22;6085;49.452;8.502;2023-12-29T06:16:47;8.00;99.90
12049;DHT22;6085;49.452;8.502;2023-12-29T06:20:49;8.10;99.90
12049;DHT22;6085;49.452;8.502;2023-12-29T06:24:51;8.20;99.90
12049;DHT22;6085;49.452;8.502;2023-12-29T06:28:54;8.20;99.90
12049;DHT22;6085;49.452;8.502;2023-12-29T06:32:56;8.30;99.90
12049;DHT22;6085;49.452;8.502;2023-12-29T06:36:58;8.30;99.90
12049;DHT22;6085;49.452;8.502;2023-12-29T06:41:02;8.30;99.90
12049;DHT22;6085;49.452;8.502;2023-12-29T06:45:07;8.40;99.90
12049;DHT22;6085;49.452;8.502;2023-12-29T06:49:09;8.50;99.90
12049;DHT22;6085;49.452;8.502;2023-12-29T06:53:11;8.80;99.90
12049;DHT22;6085;49.452;8.502;2023-12-29T06:57:13;8.90;99.90
12049;DHT22;6085;49.452;8.502;2023-12-29T07:01:18;9.10;99.90
12049;DHT22;6085;49.452;8.502;2023-12-29T07:05:20;9.30;99.90
12049;DHT22;6085;49.452;8.502;2023-12-29T07:09:22;9.40;99.90
12049;DHT22;6085;49.452;8.502;2023-12-29T07:13:24;9.60;99.90
12049;DHT22;6085;49.452;8.502;2023-12-29T07:17:27;9.60;99.90
12049;DHT22;6085;49.452;8.502;2023-12-29T07:21:29;9.60;99.90
12049;DHT22;6085;49.452;8.502;2023-12-29T07:25:31;9.60;99.90
12049;DHT22;6085;49.452;8.502;2023-12-29T07:29:33;9.60;99.90
12049;DHT22;6085;49.452;8.502;2023-12-29T07:33:37;9.60;99.90
12049;DHT22;6085;49.452;8.502;2023-12-29T07:37:39;9.70;99.90
12049;DHT22;6085;49.452;8.502;2023-12-29T07:41:41;9.80;99.90
12049;DHT22;6085;49.452;8.502;2023-12-29T07:45:43;9.80;99.90
12049;DHT22;6085;49.452;8.502;2023-12-29T07:49:46;9.90;99.90
12049;DHT22;6085;49.452;8.502;2023-12-29T07:53:48;10.00;99.90
12049;DHT22;6085;49.452;8.502;2023-12-29T07:57:50;10.00;99.90
12049;DHT22;6085;49.452;8.502;2023-12-29T08:01:52;10.10;99.90
12049;DHT22;6085;49.452;8.502;2023-12-29T08:05:56;10.20;99.90
12049;DHT22;6085;49.452;8.502;2023-12-29T08:09:58;10.20;99.90
12049;DHT22;6085;49.452;8.502;2023-12-29T08:14:00;10.20;99.90
12049;DHT22;6085;49.452;8.502;2023-12-29T08:18:03;10.10;99.90
12049;DHT22;6085;49.452;8.502;2023-12-29T08:22:06;10.10;99.90
12049;DHT22;6085;49.452;8.502;2023-12-29T08:26:08;10.10;99.90
12049;DHT22;6085;49.452;8.502;2023-12-29T08:30:11;10.10;99.90
12049;DHT22;6085;49.452;8.502;2023-12-29T08:34:13;10.10;99.90
12049;DHT22;6085;49.452;8.502;2023-12-29T08:38:17;10.00;99.90
12049;DHT22;6085;49.452;8.502;2023-12-29T08:42:19;9.90;99.90
12049;DHT22;6085;49.452;8.502;2023-12-29T08:46:20;9.80;99.90
12049;DHT22;6085;49.452;8.502;2023-12-29T08:50:23;9.80;99.90
12049;DHT22;6085;49.452;8.502;2023-12-29T08:54:26;9.80;99.90
12049;DHT22;6085;49.452;8.502;2023-12-29T08:58:29;10.00;99.90
12049;DHT22;6085;49.452;8.502;2023-12-29T09:02:31;10.00;99.90
12049;DHT22;6085;49.452;8.502;2023-12-29T09:06:33;9.90;99.90
12049;DHT22;6085;49.452;8.502;2023-12-29T09:10:36;9.80;99.90
12049;DHT22;6085;49.452;8.502;2023-12-29T09:14:39;9.80;99.90
12049;DHT22;6085;49.452;8.502;2023-12-29T09:18:41;9.80;99.90
12049;DHT22;6085;49.452;8.502;2023-12-29T09:22:42;9.90;99.90
12049;DHT22;6085;49.452;8.502;2023-12-29T09:26:46;10.00;99.90
12049;DHT22;6085;49.452;8.502;2023-12-29T09:30:48;9.90;99.90
12049;DHT22;6085;49.452;8.502;2023-12-29T09:34:49;9.90;99.90
12049;DHT22;6085;49.452;8.502;2023-12-29T09:38:52;9.80;99.90
12049;DHT22;6085;49.452;8.502;2023-12-29T09:42:55;9.90;99.90
12049;DHT22;6085;49.452;8.502;2023-12-29T09:47:01;10.10;99.90
12049;DHT22;6085;49.452;8.502;2023-12-29T09:51:04;10.30;99.90
12049;DHT22;6085;49.452;8.502;2023-12-29T09:55:09;10.40;99.90
12049;DHT22;6085;49.452;8.502;2023-12-29T09:59:13;10.50;99.90
12049;DHT22;6085;49.452;8.502;2023-12-29T10:03:16;10.60;99.90
12049;DHT22;6085;49.452;8.502;2023-12-29T10:07:22;10.70;99.90
12049;DHT22;6085;49.452;8.502;2023-12-29T10:11:26;10.70;99.90
12049;DHT22;6085;49.452;8.502;2023-12-29T10:15:41;10.80;99.90
12049;DHT22;6085;49.452;8.502;2023-12-29T10:19:50;11.10;99.90
12049;DHT22;6085;49.452;8.502;2023-12-29T10:24:02;11.40;99.90
12049;DHT22;6085;49.452;8.502;2023-12-29T10:28:05;11.50;99.90
12049;DHT22;6085;49.452;8.502;2023-12-29T10:32:09;11.70;99.90
12049;DHT22;6085;49.452;8.502;2023-12-29T10:36:11;11.90;99.90
12049;DHT22;6085;49.452;8.502;2023-12-29T10:40:17;12.10;99.90
12049;DHT22;6085;49.452;8.502;2023-12-29T10:44:19;12.20;99.90
12049;DHT22;6085;49.452;8.502;2023-12-29T10:48:23;12.30;99.90
12049;DHT22;6085;49.452;8.502;2023-12-29T10:52:27;12.40;99.90
12049;DHT22;6085;49.452;8.502;2023-12-29T10:56:31;12.50;99.90
12049;DHT22;6085;49.452;8.502;2023-12-29T11:00:33;12.60;99.90
12049;DHT22;6085;49.452;8.502;2023-12-29T11:04:37;12.80;99.90
12049;DHT22;6085;49.452;8.502;2023-12-29T11:08:39;12.70;99.90
12049;DHT22;6085;49.452;8.502;2023-12-29T11:12:41;12.60;99.90
12049;DHT22;6085;49.452;8.502;2023-12-29T11:16:44;12.70;99.90
12049;DHT22;6085;49.452;8.502;2023-12-29T11:20:49;12.70;99.90
12049;DHT22;6085;49.452;8.502;2023-12-29T11:24:51;12.80;99.90
12049;DHT22;6085;49.452;8.502;2023-12-29T11:28:53;13.50;99.90
12049;DHT22;6085;49.452;8.502;2023-12-29T11:32:59;14.10;99.90
12049;DHT22;6085;49.452;8.502;2023-12-29T11:37:27;14.40;99.90
12049;DHT22;6085;49.452;8.502;2023-12-29T11:41:33;14.30;99.90
12049;DHT22;6085;49.452;8.502;2023-12-29T11:45:38;14.00;99.90
12049;DHT22;6085;49.452;8.502;2023-12-29T11:49:59;14.10;99.90
12049;DHT22;6085;49.452;8.502;2023-12-29T11:54:03;14.30;99.90
12049;DHT22;6085;49.452;8.502;2023-12-29T11:58:25;14.80;99.90
12049;DHT22;6085;49.452;8.502;2023-12-29T12:02:28;14.40;99.90
12049;DHT22;6085;49.452;8.502;2023-12-29T12:06:37;14.70;99.90
12049;DHT22;6085;49.452;8.502;2023-12-29T12:10:41;15.00;99.90
12049;DHT22;6085;49.452;8.502;2023-12-29T12:14:50;15.20;99.90
12049;DHT22;6085;49.452;8.502;2023-12-29T12:18:52;15.30;99.90
12049;DHT22;6085;49.452;8.502;2023-12-29T12:22:57;15.20;99.90
12049;DHT22;6085;49.452;8.502;2023-12-29T12:27:01;14.80;99.90
12049;DHT22;6085;49.452;8.502;2023-12-29T12:31:07;14.20;99.90
12049;DHT22;6085;49.452;8.502;2023-12-29T12:35:18;13.80;99.90
12049;DHT22;6085;49.452;8.502;2023-12-29T12:39:20;13.50;99.90
12049;DHT22;6085;49.452;8.502;2023-12-29T12:43:25;13.30;99.90
12049;DHT22;6085;49.452;8.502;2023-12-29T12:47:44;13.20;99.90
12049;DHT22;6085;49.452;8.502;2023-12-29T12:51:47;13.20;99.90
12049;DHT22;6085;49.452;8.502;2023-12-29T12:55:50;13.20;99.90
12049;DHT22;6085;49.452;8.502;2023-12-29T12:59:53;13.10;99.90
12049;DHT22;6085;49.452;8.502;2023-12-29T13:03:58;13.10;99.90
12049;DHT22;6085;49.452;8.502;2023-12-29T13:08:00;13.10;99.90
12049;DHT22;6085;49.452;8.502;2023-12-29T13:12:10;13.20;99.90
12049;DHT22;6085;49.452;8.502;2023-12-29T13:16:12;13.20;99.90
12049;DHT22;6085;49.452;8.502;2023-12-29T13:20:16;13.10;99.90
12049;DHT22;6085;49.452;8.502;2023-12-29T13:24:18;12.90;99.90
12049;DHT22;6085;49.452;8.502;2023-12-29T13:28:20;12.80;99.90
12049;DHT22;6085;49.452;8.502;2023-12-29T13:32:23;12.70;99.90
12049;DHT22;6085;49.452;8.502;2023-12-29T13:36:42;12.50;99.90
12049;DHT22;6085;49.452;8.502;2023-12-29T13:40:53;12.40;99.90
12049;DHT22;6085;49.452;8.502;2023-12-29T13:44:56;12.30;99.90
12049;DHT22;6085;49.452;8.502;2023-12-29T13:48:59;12.50;99.90
12049;DHT22;6085;49.452;8.502;2023-12-29T13:53:03;12.40;99.90
12049;DHT22;6085;49.452;8.502;2023-12-29T13:57:06;12.20;99.90
12049;DHT22;6085;49.452;8.502;2023-12-29T14:01:08;12.10;99.90
12049;DHT22;6085;49.452;8.502;2023-12-29T14:05:15;12.10;99.90
12049;DHT22;6085;49.452;8.502;2023-12-29T14:09:21;12.10;99.90
12049;DHT22;6085;49.452;8.502;2023-12-29T14:13:24;12.10;99.90
12049;DHT22;6085;49.452;8.502;2023-12-29T14:17:26;12.10;99.90
12049;DHT22;6085;49.452;8.502;2023-12-29T14:21:30;12.30;99.90
12049;DHT22;6085;49.452;8.502;2023-12-29T14:25:35;12.40;99.90
12049;DHT22;6085;49.452;8.502;2023-12-29T14:29:40;12.60;99.90
12049;DHT22;6085;49.452;8.502;2023-12-29T14:33:43;12.50;99.90
12049;DHT22;6085;49.452;8.502;2023-12-29T14:37:45;12.20;99.90
12049;DHT22;6085;49.452;8.502;2023-12-29T14:41:48;12.00;99.90
12049;DHT22;6085;49.452;8.502;2023-12-29T14:45:50;11.90;99.90
12049;DHT22;6085;49.452;8.502;2023-12-29T14:49:52;11.70;99.90
12049;DHT22;6085;49.452;8.502;2023-12-29T14:53:53;11.60;99.90
12049;DHT22;6085;49.452;8.502;2023-12-29T14:57:57;11.40;99.90
12049;DHT22;6085;49.452;8.502;2023-12-29T15:01:59;11.40;99.90
12049;DHT22;6085;49.452;8.502;2023-12-29T15:06:02;11.30;99.90
12049;DHT22;6085;49.452;8.502;2023-12-29T15:10:05;11.30;99.90
12049;DHT22;6085;49.452;8.502;2023-12-29T15:14:09;11.10;99.90
12049;DHT22;6085;49.452;8.502;2023-12-29T15:18:11;11.00;99.90
12049;DHT22;6085;49.452;8.502;2023-12-29T15:22:12;10.90;99.90
12049;DHT22;6085;49.452;8.502;2023-12-29T15:26:14;10.80;99.90
12049;DHT22;6085;49.452;8.502;2023-12-29T15:30:19;10.60;99.90
12049;DHT22;6085;49.452;8.502;2023-12-29T15:34:21;10.60;99.90
12049;DHT22;6085;49.452;8.502;2023-12-29T15:38:23;10.60;99.90
12049;DHT22;6085;49.452;8.502;2023-12-29T15:42:25;10.60;99.90
12049;DHT22;6085;49.452;8.502;2023-12-29T15:46:29;10.50;99.90
12049;DHT22;6085;49.452;8.502;2023-12-29T15:50:31;10.60;99.90
12049;DHT22;6085;49.452;8.502;2023-12-29T15:54:32;10.50;99.90
12049;DHT22;6085;49.452;8.502;2023-12-29T15:58:34;10.40;99.90
12049;DHT22;6085;49.452;8.502;2023-12-29T16:02:38;10.40;99.90
12049;DHT22;6085;49.452;8.502;2023-12-29T16:06:40;10.40;99.90
12049;DHT22;6085;49.452;8.502;2023-12-29T16:10:41;10.40;99.90
12049;DHT22;6085;49.452;8.502;2023-12-29T16:14:43;10.50;99.90
12049;DHT22;6085;49.452;8.502;2023-12-29T16:18:46;10.40;99.90
12049;DHT22;6085;49.452;8.502;2023-12-29T16:22:48;10.40;99.90
12049;DHT22;6085;49.452;8.502;2023-12-29T16:26:51;10.40;99.90
12049;DHT22;6085;49.452;8.502;2023-12-29T16:30:52;10.50;99.90
12049;DHT22;6085;49.452;8.502;2023-12-29T16:34:56;10.40;99.90
12049;DHT22;6085;49.452;8.502;2023-12-29T16:38:58;10.30;99.90
12049;DHT22;6085;49.452;8.502;2023-12-29T16:43:00;10.30;99.90
12049;DHT22;6085;49.452;8.502;2023-12-29T16:47:01;10.40;99.90
12049;DHT22;6085;49.452;8.502;2023-12-29T16:51:05;10.40;99.90
12049;DHT22;6085;49.452;8.502;2023-12-29T16:55:08;10.40;99.90
12049;DHT22;6085;49.452;8.502;2023-12-29T16:59:09;10.40;99.90
12049;DHT22;6085;49.452;8.502;2023-12-29T17:03:12;10.50;99.90
12049;DHT22;6085;49.452;8.502;2023-12-29T17:07:15;10.60;99.90
12049;DHT22;6085;49.452;8.502;2023-12-29T17:11:17;10.60;99.90
12049;DHT22;6085;49.452;8.502;2023-12-29T17:15:18;10.50;99.90
12049;DHT22;6085;49.452;8.502;2023-12-29T17:19:22;10.60;99.90
12049;DHT22;6085;49.452;8.502;2023-12-29T17:23:27;10.60;99.90
12049;DHT22;6085;49.452;8.502;2023-12-29T17:27:29;10.50;99.90
12049;DHT22;6085;49.452;8.502;2023-12-29T17:31:31;10.50;99.90
12049;DHT22;6085;49.452;8.502;2023-12-29T17:35:33;10.50;99.90
12049;DHT22;6085;49.452;8.502;2023-12-29T17:39:36;10.40;99.90
12049;DHT22;6085;49.452;8.502;2023-12-29T17:43:38;10.40;99.90
12049;DHT22;6085;49.452;8.502;2023-12-29T17:47:40;10.50;99.90
12049;DHT22;6085;49.452;8.502;2023-12-29T17:51:43;10.50;99.90
12049;DHT22;6085;49.452;8.502;2023-12-29T17:55:46;10.50;99.90
12049;DHT22;6085;49.452;8.502;2023-12-29T17:59:50;10.50;99.90
12049;DHT22;6085;49.452;8.502;2023-12-29T18:03:51;10.30;99.90
12049;DHT22;6085;49.452;8.502;2023-12-29T18:07:53;10.20;99.90
12049;DHT22;6085;49.452;8.502;2023-12-29T18:11:56;10.20;99.90
12049;DHT22;6085;49.452;8.502;2023-12-29T18:15:58;10.10;99.90
12049;DHT22;6085;49.452;8.502;2023-12-29T18:20:00;10.00;99.90
12049;DHT22;6085;49.452;8.502;2023-12-29T18:24:03;9.90;99.90
12049;DHT22;6085;49.452;8.502;2023-12-29T18:28:06;9.90;99.90
12049;DHT22;6085;49.452;8.502;2023-12-29T18:32:09;9.90;99.90
12049;DHT22;6085;49.452;8.502;2023-12-29T18:36:11;10.00;99.90
12049;DHT22;6085;49.452;8.502;2023-12-29T18:40:13;10.10;99.90
12049;DHT22;6085;49.452;8.502;2023-12-29T18:44:16;10.10;99.90
12049;DHT22;6085;49.452;8.502;2023-12-29T18:48:18;10.10;99.90
12049;DHT22;6085;49.452;8.502;2023-12-29T18:52:20;10.10;99.90
12049;DHT22;6085;49.452;8.502;2023-12-29T18:56:22;10.00;99.90
12049;DHT22;6085;49.452;8.502;2023-12-29T19:00:25;9.90;99.90
12049;DHT22;6085;49.452;8.502;2023-12-29T19:04:27;9.90;99.90
12049;DHT22;6085;49.452;8.502;2023-12-29T19:08:29;9.90;99.90
12049;DHT22;6085;49.452;8.502;2023-12-29T19:12:31;9.90;99.90
12049;DHT22;6085;49.452;8.502;2023-12-29T19:16:35;9.90;99.90
12049;DHT22;6085;49.452;8.502;2023-12-29T19:20:37;9.80;99.90
12049;DHT22;6085;49.452;8.502;2023-12-29T19:24:40;9.90;99.90
12049;DHT22;6085;49.452;8.502;2023-12-29T19:28:44;9.80;99.90
12049;DHT22;6085;49.452;8.502;2023-12-29T19:32:48;9.80;99.90
12049;DHT22;6085;49.452;8.502;2023-12-29T19:36:51;9.80;99.90
12049;DHT22;6085;49.452;8.502;2023-12-29T19:40:53;9.80;99.90
12049;DHT22;6085;49.452;8.502;2023-12-29T19:44:55;9.70;99.90
12049;DHT22;6085;49.452;8.502;2023-12-29T19:48:58;9.80;99.90
12049;DHT22;6085;49.452;8.502;2023-12-29T19:53:00;9.90;99.90
12049;DHT22;6085;49.452;8.502;2023-12-29T19:57:02;9.80;99.90
12049;DHT22;6085;49.452;8.502;2023-12-29T20:01:04;9.90;99.90
12049;DHT22;6085;49.452;8.502;2023-12-29T20:05:09;9.90;99.90
12049;DHT22;6085;49.452;8.502;2023-12-29T20:09:11;9.80;99.90
12049;DHT22;6085;49.452;8.502;2023-12-29T20:13:13;9.80;99.90
12049;DHT22;6085;49.452;8.502;2023-12-29T20:17:15;9.90;99.90
12049;DHT22;6085;49.452;8.502;2023-12-29T20:21:21;9.90;99.90
12049;DHT22;6085;49.452;8.502;2023-12-29T20:25:23;10.00;99.90
12049;DHT22;6085;49.452;8.502;2023-12-29T20:29:25;10.10;99.90
12049;DHT22;6085;49.452;8.502;2023-12-29T20:33:27;10.10;99.90
12049;DHT22;6085;49.452;8.502;2023-12-29T20:37:30;10.10;99.90
12049;DHT22;6085;49.452;8.502;2023-12-29T20:41:32;10.20;99.90
12049;DHT22;6085;49.452;8.502;2023-12-29T20:45:34;10.20;99.90
12049;DHT22;6085;49.452;8.502;2023-12-29T20:49:37;10.10;99.90
12049;DHT22;6085;49.452;8.502;2023-12-29T20:53:41;10.00;99.90
12049;DHT22;6085;49.452;8.502;2023-12-29T20:57:43;10.00;99.90
12049;DHT22;6085;49.452;8.502;2023-12-29T21:01:45;9.90;99.90
12049;DHT22;6085;49.452;8.502;2023-12-29T21:05:46;10.00;99.90
12049;DHT22;6085;49.452;8.502;2023-12-29T21:09:50;10.10;99.90
12049;DHT22;6085;49.452;8.502;2023-12-29T21:13:52;10.00;99.90
12049;DHT22;6085;49.452;8.502;2023-12-29T21:17:54;10.00;99.90
12049;DHT22;6085;49.452;8.502;2023-12-29T21:21:55;10.10;99.90
12049;DHT22;6085;49.452;8.502;2023-12-29T21:25:59;10.20;99.90
12049;DHT22;6085;49.452;8.502;2023-12-29T21:30:00;10.10;99.90
12049;DHT22;6085;49.452;8.502;2023-12-29T21:34:04;10.20;99.90
12049;DHT22;6085;49.452;8.502;2023-12-29T21:38:08;10.20;99.90
12049;DHT22;6085;49.452;8.502;2023-12-29T21:42:11;10.20;99.90
12049;DHT22;6085;49.452;8.502;2023-12-29T21:46:13;10.20;99.90
12049;DHT22;6085;49.452;8.502;2023-12-29T21:50:15;10.10;99.90
12049;DHT22;6085;49.452;8.502;2023-12-29T21:54:18;10.10;99.90
12049;DHT22;6085;49.452;8.502;2023-12-29T21:58:21;10.00;99.90
12049;DHT22;6085;49.452;8.502;2023-12-29T22:02:23;10.00;99.90
12049;DHT22;6085;49.452;8.502;2023-12-29T22:06:29;9.90;99.90
12049;DHT22;6085;49.452;8.502;2023-12-29T22:10:31;9.90;99.90
12049;DHT22;6085;49.452;8.502;2023-12-29T22:14:34;10.00;99.90
12049;DHT22;6085;49.452;8.502;2023-12-29T22:18:36;10.50;99.90
12049;DHT22;6085;49.452;8.502;2023-12-29T22:22:38;10.70;99.90
12049;DHT22;6085;49.452;8.502;2023-12-29T22:26:40;10.70;99.90
12049;DHT22;6085;49.452;8.502;2023-12-29T22:30:44;10.60;99.90
12049;DHT22;6085;49.452;8.502;2023-12-29T22:34:46;10.50;99.90
12049;DHT22;6085;49.452;8.502;2023-12-29T22:38:48;10.50;99.90
12049;DHT22;6085;49.452;8.502;2023-12-29T22:42:49;10.50;99.90
12049;DHT22;6085;49.452;8.502;2023-12-29T22:46:53;10.40;99.90
12049;DHT22;6085;49.452;8.502;2023-12-29T22:50:55;10.50;99.90
12049;DHT22;6085;49.452;8.502;2023-12-29T22:54:57;10.50;99.90
12049;DHT22;6085;49.452;8.502;2023-12-29T22:59:00;10.60;99.90
12049;DHT22;6085;49.452;8.502;2023-12-29T23:03:04;10.60;99.90
12049;DHT22;6085;49.452;8.502;2023-12-29T23:07:06;10.60;99.90
12049;DHT22;6085;49.452;8.502;2023-12-29T23:11:08;10.60;99.90
12049;DHT22;6085;49.452;8.502;2023-12-29T23:15:10;10.70;99.90
12049;DHT22;6085;49.452;8.502;2023-12-29T23:19:14;10.70;99.90
12049;DHT22;6085;49.452;8.502;2023-12-29T23:23:16;10.70;99.90
12049;DHT22;6085;49.452;8.502;2023-12-29T23:27:18;10.40;99.90
12049;DHT22;6085;49.452;8.502;2023-12-29T23:31:20;10.00;99.90
12049;DHT22;6085;49.452;8.502;2023-12-29T23:35:23;9.50;99.90
12049;DHT22;6085;49.452;8.502;2023-12-29T23:39:25;9.10;99.90
12049;DHT22;6085;49.452;8.502;2023-12-29T23:43:26;8.90;99.90
12049;DHT22;6085;49.452;8.502;2023-12-29T23:47:28;8.80;99.90
12049;DHT22;6085;49.452;8.502;2023-12-29T23:51:32;8.60;99.90
12049;DHT22;6085;49.452;8.502;2023-12-29T23:55:35;8.60;99.90
12049;DHT22;6085;49.452;8.502;2023-12-29T23:59:36;8.50;99.90
